Legend :    VFR   Marginal VFR   IFR   Intensive IFR   Very Intensive IFR
Visi :
Ceiling :
>= 8 km
>= 3000ft
5 to 8 km
1000 to 3000 ft
1500m to 5 km
500 to 1000 ft
800 to 1500m
200 to 500 ft
< 800m
< 200 ft
Symbols :   Thunderstorms  Fog  Heavy snow  Heavy precipitations  Wind > 20 kt
SIGMETs :     Misc.  Thunderstorms  Icing  Turbulence  Mountain Waves  Volcanic Ashes






- Airport Elevation : 876 ft
- IATA code : MBX


LJMB - Maribor

CURRENT METAR :
  • 261430Z VRB02KT 5000 BR OVC006 00/M01 Q1024

EXPIRED METARs :
  • 261400Z 34003KT 300V020 5000 BR OVC007 00/M01 Q1024
  • 261330Z VRB02KT 5000 BR OVC007 00/M01 Q1024
  • 261300Z VRB02KT 5000 BR OVC007 00/M01 Q1024
  • 261230Z 24001KT 5000 BR OVC007 00/M01 Q1025
  • 261200Z VRB02KT 5000 BR OVC007 00/M01 Q1025

TAF TAF LJMB
Valid from the 26 at 12:00 until the 27 at 12:00 UTC


261100Z 2612/2712 VRB02KT 4000 BR OVC005
TEMPO 2612/2615 7000 NSW
PROB30
TEMPO 2612/2615 BKN010
TEMPO 2616/2712 0300 FZFG VV002


LOGIN :  

Disclaimer |     EN      FR      IT 



MET'MAP, your aeronautical weather chart ! - Copyright ORBIFLY December 2007 - Disclaimer


ORBIFLY MET'MAP TEAM :

Programming & Development : Alexandra Zaïnal
Concept & original design : Baudouin d'Aumeries
Assistance for programming : Marc-Olivier Méhu
Technical & hardware support : Manuel Goepfert

Contact : metmap@orbifly.com




SOURCES & CREDITS :

   NOAA